createdAt,value
2022-08-17T00:00:49.420Z,14.20
2022-08-17T00:03:25.766Z,13.80
2022-08-17T00:05:59.945Z,13.00
2022-08-17T00:08:34.561Z,13.00
2022-08-17T00:11:10.302Z,12.80
2022-08-17T00:13:48.457Z,12.50
2022-08-17T00:16:23.069Z,13.20
2022-08-17T00:19:17.959Z,13.30
2022-08-17T00:22:33.120Z,13.00
2022-08-17T00:24:42.888Z,13.00
2022-08-17T00:27:14.588Z,12.90
2022-08-17T00:29:46.881Z,13.40
2022-08-17T00:33:15.945Z,13.70
2022-08-17T00:35:13.965Z,14.40
2022-08-17T00:37:46.155Z,14.00
2022-08-17T00:40:19.332Z,12.70
2022-08-17T00:42:51.734Z,12.30
2022-08-17T00:45:23.743Z,12.40
2022-08-17T00:47:55.261Z,12.50
2022-08-17T00:50:26.848Z,13.00
2022-08-17T00:53:00.291Z,12.70
2022-08-17T00:55:32.862Z,13.70
2022-08-17T00:58:06.667Z,13.70
2022-08-17T01:00:41.942Z,12.70
2022-08-17T01:03:18.913Z,13.30
2022-08-17T01:05:51.522Z,13.20
2022-08-17T01:08:27.128Z,12.70
2022-08-17T01:11:02.475Z,13.70
2022-08-17T01:13:40.999Z,13.40
2022-08-17T01:16:17.810Z,13.30
2022-08-17T01:18:53.335Z,12.40
2022-08-17T01:21:32.876Z,11.50
2022-08-17T01:24:05.499Z,13.50
2022-08-17T01:26:37.950Z,13.60
2022-08-17T01:29:10.463Z,12.90
2022-08-17T01:31:45.728Z,12.30
2022-08-17T01:34:18.872Z,13.60
2022-08-17T01:36:52.584Z,13.40
2022-08-17T01:39:31.237Z,13.10
2022-08-17T01:42:09.429Z,13.80
2022-08-17T01:44:42.115Z,13.50
2022-08-17T01:47:13.966Z,13.60
2022-08-17T01:49:45.545Z,13.70
2022-08-17T01:52:17.973Z,13.30
2022-08-17T01:54:50.282Z,13.20
2022-08-17T01:57:21.912Z,13.30
2022-08-17T01:59:53.456Z,13.80
2022-08-17T02:02:30.475Z,13.60
2022-08-17T02:05:03.118Z,13.40
2022-08-17T02:07:59.982Z,12.60
2022-08-17T02:10:34.095Z,13.00
2022-08-17T02:13:07.096Z,13.40
2022-08-17T02:15:39.049Z,13.70
2022-08-17T02:18:11.625Z,12.70
2022-08-17T02:20:43.628Z,12.30
2022-08-17T02:23:15.697Z,12.30
2022-08-17T02:25:48.881Z,12.10
2022-08-17T02:28:21.390Z,12.80
2022-08-17T02:31:01.747Z,12.80
2022-08-17T02:33:42.716Z,13.30
2022-08-17T02:36:15.632Z,12.90
2022-08-17T02:38:47.740Z,11.80
2022-08-17T02:41:19.287Z,11.50
2022-08-17T02:43:51.144Z,12.10
2022-08-17T02:46:22.787Z,12.50
2022-08-17T02:48:54.532Z,13.00
2022-08-17T02:51:26.461Z,13.80
2022-08-17T02:54:35.588Z,13.30
2022-08-17T02:56:49.654Z,12.00
2022-08-17T02:59:21.165Z,12.20
2022-08-17T03:01:53.735Z,13.60
2022-08-17T03:04:25.417Z,14.70
2022-08-17T03:06:56.938Z,15.10
2022-08-17T03:09:28.815Z,14.80
2022-08-17T03:12:07.525Z,13.50
2022-08-17T03:14:41.886Z,12.70
2022-08-17T03:17:17.114Z,13.00
2022-08-17T03:19:49.214Z,12.20
2022-08-17T03:22:36.693Z,12.40
2022-08-17T03:25:19.615Z,12.60
2022-08-17T03:27:54.518Z,12.90
2022-08-17T03:30:28.180Z,12.40
2022-08-17T03:33:01.744Z,12.80
2022-08-17T03:35:36.389Z,12.20
2022-08-17T03:38:08.874Z,12.40
2022-08-17T03:40:58.931Z,11.60
2022-08-17T03:43:33.372Z,12.00
2022-08-17T03:46:34.229Z,12.40
2022-08-17T03:49:26.667Z,13.40
2022-08-17T03:52:16.992Z,11.60
2022-08-17T03:55:11.441Z,12.50
2022-08-17T03:57:43.212Z,11.40
2022-08-17T04:00:17.817Z,12.10
2022-08-17T04:02:49.676Z,12.10
2022-08-17T04:05:22.022Z,11.80
2022-08-17T04:07:53.602Z,12.20
2022-08-17T04:10:26.534Z,12.50
2022-08-17T04:12:59.216Z,11.30
2022-08-17T04:15:31.118Z,11.30
2022-08-17T04:18:02.845Z,11.40
2022-08-17T04:20:37.527Z,11.20
2022-08-17T04:23:11.297Z,11.70
2022-08-17T04:25:48.200Z,12.90
2022-08-17T04:28:21.178Z,13.10
2022-08-17T04:30:52.797Z,12.00
2022-08-17T04:33:25.661Z,12.10
2022-08-17T04:35:59.873Z,12.00
2022-08-17T04:38:33.942Z,12.70
2022-08-17T04:41:25.241Z,12.70
2022-08-17T04:43:58.504Z,10.90
2022-08-17T04:46:33.882Z,11.50
2022-08-17T04:49:08.416Z,12.70
2022-08-17T04:51:54.546Z,10.60
2022-08-17T04:54:27.937Z,11.40
2022-08-17T04:56:59.593Z,11.30
2022-08-17T04:59:31.055Z,11.10
2022-08-17T05:02:02.733Z,11.10
2022-08-17T05:04:35.496Z,10.00
2022-08-17T05:07:07.163Z,11.60
2022-08-17T05:09:38.609Z,10.70
2022-08-17T05:12:10.524Z,10.40
2022-08-17T05:14:42.437Z,10.10
2022-08-17T05:17:14.049Z,9.20
2022-08-17T05:19:51.784Z,9.70
2022-08-17T05:22:23.639Z,9.00
2022-08-17T05:24:56.106Z,9.20
2022-08-17T05:27:30.837Z,9.00
2022-08-17T05:30:08.641Z,9.50
2022-08-17T05:32:40.442Z,8.30
2022-08-17T05:35:12.473Z,8.40
2022-08-17T05:37:44.534Z,8.80
2022-08-17T05:40:19.033Z,8.60
2022-08-17T05:42:51.168Z,9.00
2022-08-17T05:45:23.684Z,8.10
2022-08-17T05:48:16.750Z,9.40
2022-08-17T05:50:57.073Z,10.60
2022-08-17T05:56:29.592Z,9.50
2022-08-17T05:59:12.247Z,11.10
2022-08-17T06:01:51.312Z,10.60
2022-08-17T06:04:42.920Z,10.70
2022-08-17T06:07:21.822Z,11.40
2022-08-17T06:10:04.355Z,11.00
2022-08-17T06:12:48.869Z,11.30
2022-08-17T06:15:32.210Z,11.50
2022-08-17T06:18:07.487Z,11.50
2022-08-17T06:20:48.155Z,12.40
2022-08-17T06:23:26.455Z,12.00
2022-08-17T06:26:03.801Z,11.50
2022-08-17T06:28:41.240Z,11.30
2022-08-17T06:31:20.029Z,10.60
2022-08-17T06:33:52.031Z,10.40
2022-08-17T06:36:40.281Z,10.40
2022-08-17T06:39:33.436Z,10.70
2022-08-17T06:43:02.269Z,9.80
2022-08-17T06:45:13.538Z,9.80
2022-08-17T06:47:50.152Z,9.60
2022-08-17T06:50:28.512Z,9.20
2022-08-17T06:53:05.315Z,9.30
2022-08-17T06:55:46.564Z,8.80
2022-08-17T06:58:22.980Z,9.10
2022-08-17T07:01:06.037Z,8.90
2022-08-17T07:03:43.840Z,8.60
2022-08-17T07:06:20.109Z,9.40
2022-08-17T07:09:00.048Z,9.50
2022-08-17T07:11:38.802Z,9.50
2022-08-17T07:14:39.271Z,9.30
2022-08-17T07:17:14.249Z,10.20
2022-08-17T07:19:50.131Z,10.10
2022-08-17T07:22:31.273Z,9.70
2022-08-17T07:25:23.332Z,9.50
2022-08-17T07:27:59.764Z,9.10
2022-08-17T07:30:44.580Z,9.70
2022-08-17T07:33:22.710Z,9.80
2022-08-17T07:35:54.904Z,8.90
2022-08-17T07:38:28.538Z,9.20
2022-08-17T07:41:06.611Z,8.60
2022-08-17T07:43:47.800Z,8.50
2022-08-17T07:46:39.645Z,8.30
2022-08-17T07:49:24.836Z,9.30
2022-08-17T07:52:24.326Z,8.60
2022-08-17T07:55:01.082Z,8.60
2022-08-17T07:57:37.138Z,8.40
2022-08-17T08:00:19.697Z,9.50
2022-08-17T08:03:28.547Z,10.40
2022-08-17T08:06:03.481Z,9.60
2022-08-17T08:08:42.310Z,9.60
2022-08-17T08:11:30.978Z,11.00
2022-08-17T08:14:22.515Z,11.20
2022-08-17T08:17:02.879Z,10.60
2022-08-17T08:19:35.439Z,10.20
2022-08-17T08:22:11.256Z,10.00
2022-08-17T08:25:02.299Z,9.30
2022-08-17T08:27:48.095Z,10.60
2022-08-17T08:30:22.269Z,10.90
2022-08-17T08:33:12.556Z,10.50
2022-08-17T08:35:50.060Z,11.30
2022-08-17T08:38:30.823Z,10.90
2022-08-17T08:41:17.267Z,11.80
2022-08-17T08:43:56.990Z,11.00
2022-08-17T08:46:38.577Z,10.90
2022-08-17T08:50:01.930Z,11.40
2022-08-17T08:52:39.967Z,9.00
2022-08-17T08:55:19.282Z,11.20
2022-08-17T08:57:57.502Z,11.10
2022-08-17T09:00:35.766Z,12.20
2022-08-17T09:03:51.922Z,10.70
2022-08-17T09:06:38.972Z,12.00
2022-08-17T09:09:24.494Z,11.90
2022-08-17T09:12:06.343Z,12.10
2022-08-17T09:14:46.904Z,11.60
2022-08-17T09:17:22.942Z,10.10
2022-08-17T09:20:00.937Z,10.00
2022-08-17T09:22:38.752Z,10.10
2022-08-17T09:25:13.624Z,10.60
2022-08-17T09:27:52.371Z,10.50
2022-08-17T09:30:25.022Z,10.10
2022-08-17T09:33:00.081Z,11.00
2022-08-17T09:35:37.668Z,10.50
2022-08-17T09:38:25.065Z,11.70
2022-08-17T09:41:08.634Z,10.50
2022-08-17T09:43:47.643Z,10.90
2022-08-17T09:46:22.832Z,10.50
2022-08-17T09:49:04.260Z,10.60
2022-08-17T09:51:41.145Z,10.10
2022-08-17T09:54:38.706Z,10.10
2022-08-17T09:57:32.299Z,10.00
2022-08-17T10:00:20.461Z,11.20
2022-08-17T10:03:17.182Z,10.80
2022-08-17T10:05:56.773Z,10.90
2022-08-17T10:08:38.105Z,10.40
2022-08-17T10:11:19.466Z,10.40
2022-08-17T10:13:58.371Z,10.80
2022-08-17T10:16:41.340Z,10.70
2022-08-17T10:19:20.363Z,10.30
2022-08-17T10:22:35.244Z,10.30
2022-08-17T10:25:42.586Z,12.30
2022-08-17T10:28:29.473Z,12.40
2022-08-17T10:31:32.970Z,10.60
2022-08-17T10:34:28.042Z,17.00
2022-08-17T10:37:23.593Z,12.00
2022-08-17T10:40:09.031Z,11.10
2022-08-17T10:42:53.306Z,10.50
2022-08-17T10:45:32.219Z,38.20
2022-08-17T10:48:22.021Z,12.70
2022-08-17T10:51:01.822Z,17.60
2022-08-17T10:53:54.934Z,15.50
2022-08-17T10:56:42.723Z,11.90
2022-08-17T10:59:59.425Z,22.50
2022-08-17T11:02:39.641Z,9.80
2022-08-17T11:05:23.668Z,10.80
2022-08-17T11:08:08.414Z,10.10
2022-08-17T11:11:07.578Z,12.60
2022-08-17T11:13:48.441Z,15.40
2022-08-17T11:16:45.608Z,11.20
2022-08-17T11:19:43.448Z,10.80
2022-08-17T11:22:33.587Z,9.90
2022-08-17T11:25:17.381Z,10.40
2022-08-17T11:27:53.846Z,10.40
2022-08-17T11:30:48.452Z,10.10
2022-08-17T11:33:56.019Z,10.40
2022-08-17T11:36:56.042Z,9.80
2022-08-17T11:39:42.777Z,11.20
2022-08-17T11:42:32.594Z,10.00
2022-08-17T11:45:32.292Z,11.10
2022-08-17T11:48:34.248Z,9.40
2022-08-17T11:51:29.470Z,9.60
2022-08-17T11:57:23.892Z,10.10
2022-08-17T12:00:11.237Z,11.70
2022-08-17T12:02:48.908Z,10.10
2022-08-17T12:05:38.765Z,11.70
2022-08-17T12:08:18.564Z,11.60
2022-08-17T12:10:59.291Z,11.70
2022-08-17T12:13:40.665Z,11.90
2022-08-17T12:16:17.355Z,12.60
2022-08-17T12:18:54.246Z,11.40
2022-08-17T12:21:43.641Z,10.90
2022-08-17T12:24:33.644Z,12.80
2022-08-17T12:27:08.021Z,12.90
2022-08-17T12:29:43.790Z,12.30
2022-08-17T12:32:20.586Z,11.70
2022-08-17T12:34:55.204Z,11.90
2022-08-17T12:37:31.981Z,13.50
2022-08-17T12:40:09.486Z,12.20
2022-08-17T12:42:41.773Z,11.20
2022-08-17T12:45:25.780Z,11.90
2022-08-17T12:48:07.840Z,10.80
2022-08-17T12:50:41.582Z,10.70
2022-08-17T12:53:15.848Z,12.30
2022-08-17T12:55:48.482Z,11.10
2022-08-17T12:58:25.261Z,11.80
2022-08-17T13:01:04.335Z,11.90
2022-08-17T13:03:45.543Z,11.80
2022-08-17T13:06:32.090Z,10.00
2022-08-17T13:09:14.510Z,9.20
2022-08-17T13:11:52.932Z,9.90
2022-08-17T13:14:28.143Z,8.80
2022-08-17T13:17:06.270Z,9.20
2022-08-17T13:19:50.553Z,8.20
2022-08-17T13:22:26.666Z,8.10
2022-08-17T13:25:03.656Z,7.70
2022-08-17T13:27:35.517Z,7.00
2022-08-17T13:30:20.753Z,7.40
2022-08-17T13:33:05.003Z,7.20
2022-08-17T13:41:40.579Z,7.10
2022-08-17T13:44:36.563Z,7.50
2022-08-17T13:47:14.062Z,7.60
2022-08-17T13:49:48.899Z,7.90
2022-08-17T13:52:37.858Z,6.60
2022-08-17T13:55:15.401Z,7.00
2022-08-17T13:57:46.966Z,7.60
2022-08-17T14:00:30.022Z,7.00
2022-08-17T14:02:59.350Z,7.30
2022-08-17T14:05:28.959Z,7.10
2022-08-17T14:08:00.530Z,6.10
2022-08-17T14:10:29.662Z,7.20
2022-08-17T14:12:57.937Z,7.00
2022-08-17T14:15:54.543Z,7.20
2022-08-17T14:18:17.683Z,7.00
2022-08-17T14:20:46.655Z,7.50
2022-08-17T14:23:15.116Z,7.00
2022-08-17T14:25:45.192Z,7.50
2022-08-17T14:28:15.109Z,6.40
2022-08-17T14:30:43.557Z,6.70
2022-08-17T14:33:12.205Z,8.70
2022-08-17T14:35:40.661Z,7.70
2022-08-17T14:38:09.210Z,6.40
2022-08-17T14:40:38.560Z,6.90
2022-08-17T14:43:07.093Z,7.00
2022-08-17T14:45:35.523Z,6.80
2022-08-17T14:48:06.914Z,7.50
2022-08-17T14:50:38.420Z,8.40
2022-08-17T14:53:08.943Z,7.50
2022-08-17T14:55:40.132Z,7.60
2022-08-17T14:58:08.721Z,7.50
2022-08-17T15:00:38.994Z,8.50
2022-08-17T15:03:07.509Z,7.80
2022-08-17T15:05:38.400Z,7.90
2022-08-17T15:08:07.101Z,7.60
2022-08-17T15:10:36.759Z,7.30
2022-08-17T15:13:10.252Z,7.10
2022-08-17T15:15:39.229Z,7.90
2022-08-17T15:18:07.767Z,7.50
2022-08-17T15:20:36.310Z,8.00
2022-08-17T15:23:06.358Z,6.70
2022-08-17T15:25:38.871Z,7.80
2022-08-17T15:28:08.590Z,6.60
2022-08-17T15:30:42.221Z,6.60
2022-08-17T15:33:14.817Z,7.20
2022-08-17T15:35:50.486Z,7.80
2022-08-17T15:38:29.670Z,8.10
2022-08-17T15:41:31.116Z,7.50
2022-08-17T15:43:59.880Z,7.70
2022-08-17T15:46:30.928Z,7.10
2022-08-17T15:49:19.492Z,7.60
2022-08-17T15:51:56.607Z,6.80
2022-08-17T15:54:25.774Z,8.00
2022-08-17T15:57:01.145Z,8.20
2022-08-17T15:59:29.811Z,7.60
2022-08-17T16:03:13.775Z,8.20
2022-08-17T16:04:51.750Z,7.40
2022-08-17T16:07:24.454Z,7.60
2022-08-17T16:09:55.675Z,8.10
2022-08-17T16:12:24.653Z,7.80
2022-08-17T16:15:08.470Z,7.90
2022-08-17T16:17:39.976Z,7.90
2022-08-17T16:20:20.021Z,8.40
2022-08-17T16:22:50.544Z,8.20
2022-08-17T16:25:22.067Z,8.40
2022-08-17T16:27:52.756Z,8.50
2022-08-17T16:30:24.709Z,7.90
2022-08-17T16:32:54.533Z,8.30
2022-08-17T16:35:26.419Z,8.60
2022-08-17T16:37:58.527Z,8.40
2022-08-17T16:40:29.543Z,9.80
2022-08-17T16:42:59.629Z,9.00
2022-08-17T16:45:35.671Z,9.10
2022-08-17T16:48:07.521Z,9.50
2022-08-17T16:50:36.534Z,9.30
2022-08-17T16:53:08.320Z,9.70
2022-08-17T16:55:37.800Z,10.30
2022-08-17T16:58:45.417Z,11.00
2022-08-17T17:01:27.388Z,10.20
2022-08-17T17:03:59.580Z,10.00
2022-08-17T17:06:37.504Z,10.20
2022-08-17T17:09:10.352Z,10.40
2022-08-17T17:11:43.884Z,10.80
2022-08-17T17:14:17.507Z,9.90
2022-08-17T17:16:51.870Z,9.10
2022-08-17T17:19:34.628Z,9.40
2022-08-17T17:22:13.603Z,9.60
2022-08-17T17:24:51.322Z,9.30
2022-08-17T17:27:36.313Z,8.70
2022-08-17T17:30:10.104Z,9.20
2022-08-17T17:32:46.443Z,9.50
2022-08-17T17:35:22.703Z,9.50
2022-08-17T17:37:52.912Z,9.40
2022-08-17T17:40:25.161Z,9.40
2022-08-17T17:43:09.270Z,7.40
2022-08-17T17:45:52.873Z,8.30
2022-08-17T17:48:21.312Z,8.90
2022-08-17T17:51:01.994Z,8.90
2022-08-17T17:56:43.271Z,8.80
2022-08-17T17:59:17.565Z,9.10
2022-08-17T18:01:55.028Z,8.70
2022-08-17T18:04:30.562Z,8.80
2022-08-17T18:07:18.989Z,9.70
2022-08-17T18:10:19.739Z,9.10
2022-08-17T18:13:10.778Z,8.40
2022-08-17T18:15:50.287Z,8.90
2022-08-17T18:18:37.265Z,9.90
2022-08-17T18:21:17.870Z,9.20
2022-08-17T18:23:53.835Z,9.00
2022-08-17T18:26:41.924Z,10.20
2022-08-17T18:29:38.193Z,9.90
2022-08-17T18:32:30.586Z,9.30
2022-08-17T18:35:05.051Z,8.60
2022-08-17T18:37:45.533Z,8.70
2022-08-17T18:40:39.083Z,9.60
2022-08-17T18:43:22.956Z,9.00
2022-08-17T18:45:53.860Z,9.70
2022-08-17T18:48:38.606Z,10.00
2022-08-17T18:51:40.839Z,9.20
2022-08-17T18:54:22.034Z,8.60
2022-08-17T18:56:53.820Z,9.20
2022-08-17T18:59:42.200Z,9.20
2022-08-17T19:02:45.597Z,9.40
2022-08-17T19:05:27.125Z,10.40
2022-08-17T19:08:18.552Z,9.20
2022-08-17T19:10:50.200Z,9.20
2022-08-17T19:13:24.887Z,10.40
2022-08-17T19:16:12.058Z,10.50
2022-08-17T19:18:48.745Z,10.10
2022-08-17T19:21:21.360Z,10.00
2022-08-17T19:23:57.969Z,9.60
2022-08-17T19:26:53.742Z,10.30
2022-08-17T19:29:24.984Z,9.80
2022-08-17T19:31:54.597Z,10.90
2022-08-17T19:34:30.073Z,14.60
2022-08-17T19:37:09.421Z,12.00
2022-08-17T19:39:50.480Z,12.10
2022-08-17T19:42:41.823Z,11.10
2022-08-17T19:45:22.441Z,10.50
2022-08-17T19:48:02.858Z,11.50
2022-08-17T19:53:17.840Z,11.70
2022-08-17T19:55:59.414Z,12.20
2022-08-17T19:58:51.896Z,12.40
2022-08-17T20:01:34.876Z,13.00
2022-08-17T20:04:12.421Z,11.70
2022-08-17T20:06:46.076Z,12.40
2022-08-17T20:09:20.777Z,13.10
2022-08-17T20:11:55.538Z,13.40
2022-08-17T20:14:30.683Z,14.20
2022-08-17T20:17:02.590Z,13.80
2022-08-17T20:19:42.808Z,14.20
2022-08-17T20:22:20.366Z,13.60
2022-08-17T20:24:58.360Z,14.10
2022-08-17T20:27:31.537Z,12.70
2022-08-17T20:30:06.573Z,14.90
2022-08-17T20:32:48.684Z,13.80
2022-08-17T20:35:24.486Z,13.30
2022-08-17T20:37:57.159Z,12.30
2022-08-17T20:40:29.118Z,13.30
2022-08-17T20:42:59.099Z,14.00
2022-08-17T20:45:58.307Z,14.90
2022-08-17T20:48:38.307Z,15.00
2022-08-17T20:51:22.221Z,14.90
2022-08-17T20:54:40.442Z,14.30
2022-08-17T20:57:14.212Z,12.90
2022-08-17T21:00:13.844Z,14.80
2022-08-17T21:02:44.000Z,14.60
2022-08-17T21:05:31.660Z,14.60
2022-08-17T21:08:12.640Z,14.70
2022-08-17T21:13:34.170Z,13.10
2022-08-17T21:16:20.598Z,12.70
2022-08-17T21:19:00.136Z,13.90
2022-08-17T21:21:37.377Z,15.20
2022-08-17T21:24:18.685Z,13.40
2022-08-17T21:26:56.347Z,12.00
2022-08-17T21:29:30.831Z,13.80
2022-08-17T21:32:24.705Z,13.60
2022-08-17T21:35:26.049Z,14.10
2022-08-17T21:38:01.616Z,14.60
2022-08-17T21:40:32.511Z,14.70
2022-08-17T21:43:16.679Z,14.00
2022-08-17T21:45:57.072Z,17.00
2022-08-17T21:48:26.733Z,14.40
2022-08-17T21:51:03.227Z,14.40
2022-08-17T21:53:38.288Z,15.00
2022-08-17T21:56:11.327Z,14.20
2022-08-17T21:58:47.900Z,14.60
2022-08-17T22:01:23.636Z,14.70
2022-08-17T22:04:03.215Z,14.20
2022-08-17T22:06:37.915Z,14.00
2022-08-17T22:09:17.199Z,13.70
2022-08-17T22:11:55.244Z,15.20
2022-08-17T22:14:26.373Z,14.60
2022-08-17T22:19:38.369Z,15.80
2022-08-17T22:22:09.651Z,16.10
2022-08-17T22:24:38.712Z,15.40
2022-08-17T22:27:10.841Z,15.20
2022-08-17T22:29:53.251Z,15.50
2022-08-17T22:32:41.995Z,15.10
2022-08-17T22:35:35.929Z,14.30
2022-08-17T22:38:27.211Z,15.00
2022-08-17T22:43:29.095Z,13.50
2022-08-17T22:45:59.561Z,14.50
2022-08-17T22:48:30.562Z,14.70
2022-08-17T22:51:12.678Z,14.00
2022-08-17T22:54:06.776Z,15.40
2022-08-17T22:56:53.727Z,14.20
2022-08-17T22:59:42.939Z,14.60
2022-08-17T23:02:24.408Z,13.70
2022-08-17T23:04:56.820Z,14.10
2022-08-17T23:07:26.237Z,14.10
2022-08-17T23:09:57.191Z,14.40
2022-08-17T23:12:27.086Z,14.20
2022-08-17T23:15:00.241Z,13.90
2022-08-17T23:17:36.903Z,13.90
2022-08-17T23:20:11.411Z,13.70
2022-08-17T23:22:52.438Z,13.90
2022-08-17T23:25:27.313Z,14.10
2022-08-17T23:27:57.767Z,14.90
2022-08-17T23:30:27.824Z,14.80
2022-08-17T23:32:58.888Z,14.20
2022-08-17T23:38:10.389Z,14.20
2022-08-17T23:40:40.065Z,14.40
2022-08-17T23:43:17.604Z,14.70
2022-08-17T23:45:54.227Z,14.40
2022-08-17T23:48:32.589Z,14.30
2022-08-17T23:51:12.182Z,13.40
2022-08-17T23:53:45.490Z,12.60
2022-08-17T23:56:14.267Z,13.10
2022-08-17T23:58:44.059Z,12.90
